sensor_id;sensor_type;location;lat;lon;timestamp;P1;durP1;ratioP1;P2;durP2;ratioP2
2023;SDS011;1016;48.770;9.154;2022-07-29T00:01:18;16.47;;;6.17;;
2023;SDS011;1016;48.770;9.154;2022-07-29T00:03:44;16.75;;;5.80;;
2023;SDS011;1016;48.770;9.154;2022-07-29T00:06:09;16.53;;;6.10;;
2023;SDS011;1016;48.770;9.154;2022-07-29T00:08:35;16.30;;;5.70;;
2023;SDS011;1016;48.770;9.154;2022-07-29T00:11:01;16.53;;;6.07;;
2023;SDS011;1016;48.770;9.154;2022-07-29T00:13:27;16.35;;;5.95;;
2023;SDS011;1016;48.770;9.154;2022-07-29T00:15:52;15.82;;;5.80;;
2023;SDS011;1016;48.770;9.154;2022-07-29T00:18:18;17.40;;;6.50;;
2023;SDS011;1016;48.770;9.154;2022-07-29T00:20:43;17.67;;;6.10;;
2023;SDS011;1016;48.770;9.154;2022-07-29T00:23:09;16.33;;;6.20;;
2023;SDS011;1016;48.770;9.154;2022-07-29T00:25:35;15.97;;;6.10;;
2023;SDS011;1016;48.770;9.154;2022-07-29T00:28:00;16.83;;;6.60;;
2023;SDS011;1016;48.770;9.154;2022-07-29T00:30:26;17.60;;;6.40;;
2023;SDS011;1016;48.770;9.154;2022-07-29T00:32:51;16.03;;;5.93;;
2023;SDS011;1016;48.770;9.154;2022-07-29T00:35:17;15.93;;;5.70;;
2023;SDS011;1016;48.770;9.154;2022-07-29T00:38:01;15.98;;;5.80;;
2023;SDS011;1016;48.770;9.154;2022-07-29T00:40:26;16.90;;;6.10;;
2023;SDS011;1016;48.770;9.154;2022-07-29T00:42:52;17.03;;;6.00;;
2023;SDS011;1016;48.770;9.154;2022-07-29T00:45:18;16.92;;;6.30;;
2023;SDS011;1016;48.770;9.154;2022-07-29T00:47:44;17.58;;;6.25;;
2023;SDS011;1016;48.770;9.154;2022-07-29T00:50:10;15.27;;;5.90;;
2023;SDS011;1016;48.770;9.154;2022-07-29T00:52:37;17.05;;;6.10;;
2023;SDS011;1016;48.770;9.154;2022-07-29T00:55:04;15.73;;;5.70;;
2023;SDS011;1016;48.770;9.154;2022-07-29T00:57:32;17.00;;;5.88;;
2023;SDS011;1016;48.770;9.154;2022-07-29T00:59:58;16.83;;;6.32;;
2023;SDS011;1016;48.770;9.154;2022-07-29T01:02:23;16.10;;;5.90;;
2023;SDS011;1016;48.770;9.154;2022-07-29T01:04:49;16.63;;;6.30;;
2023;SDS011;1016;48.770;9.154;2022-07-29T01:07:15;16.30;;;5.80;;
2023;SDS011;1016;48.770;9.154;2022-07-29T01:09:42;16.25;;;5.90;;
2023;SDS011;1016;48.770;9.154;2022-07-29T01:12:09;15.30;;;5.30;;
2023;SDS011;1016;48.770;9.154;2022-07-29T01:14:35;14.85;;;5.00;;
2023;SDS011;1016;48.770;9.154;2022-07-29T01:17:04;15.23;;;5.20;;
2023;SDS011;1016;48.770;9.154;2022-07-29T01:19:45;17.10;;;5.70;;
2023;SDS011;1016;48.770;9.154;2022-07-29T01:22:25;15.50;;;5.50;;
2023;SDS011;1016;48.770;9.154;2022-07-29T01:25:12;15.85;;;5.40;;
2023;SDS011;1016;48.770;9.154;2022-07-29T01:30:35;16.30;;;5.70;;
2023;SDS011;1016;48.770;9.154;2022-07-29T01:33:09;16.70;;;5.70;;
2023;SDS011;1016;48.770;9.154;2022-07-29T01:35:58;15.80;;;5.70;;
2023;SDS011;1016;48.770;9.154;2022-07-29T01:38:26;15.52;;;5.60;;
2023;SDS011;1016;48.770;9.154;2022-07-29T01:40:54;16.02;;;5.70;;
2023;SDS011;1016;48.770;9.154;2022-07-29T01:43:31;16.70;;;5.50;;
2023;SDS011;1016;48.770;9.154;2022-07-29T01:46:04;16.30;;;6.13;;
2023;SDS011;1016;48.770;9.154;2022-07-29T01:48:46;16.02;;;6.03;;
2023;SDS011;1016;48.770;9.154;2022-07-29T01:51:18;15.50;;;5.50;;
2023;SDS011;1016;48.770;9.154;2022-07-29T01:53:55;15.30;;;5.70;;
2023;SDS011;1016;48.770;9.154;2022-07-29T01:56:31;14.80;;;5.50;;
2023;SDS011;1016;48.770;9.154;2022-07-29T01:58:58;15.73;;;5.40;;
2023;SDS011;1016;48.770;9.154;2022-07-29T02:01:25;15.57;;;5.13;;
2023;SDS011;1016;48.770;9.154;2022-07-29T02:03:52;17.20;;;5.77;;
2023;SDS011;1016;48.770;9.154;2022-07-29T02:06:20;15.80;;;5.53;;
2023;SDS011;1016;48.770;9.154;2022-07-29T02:08:47;15.32;;;5.20;;
2023;SDS011;1016;48.770;9.154;2022-07-29T02:11:16;15.50;;;5.53;;
2023;SDS011;1016;48.770;9.154;2022-07-29T02:13:41;16.42;;;5.53;;
2023;SDS011;1016;48.770;9.154;2022-07-29T02:16:09;15.98;;;5.20;;
2023;SDS011;1016;48.770;9.154;2022-07-29T02:18:35;14.85;;;5.03;;
2023;SDS011;1016;48.770;9.154;2022-07-29T02:21:02;15.20;;;4.70;;
2023;SDS011;1016;48.770;9.154;2022-07-29T02:23:28;15.55;;;4.80;;
2023;SDS011;1016;48.770;9.154;2022-07-29T02:25:57;15.13;;;4.82;;
2023;SDS011;1016;48.770;9.154;2022-07-29T02:28:25;15.90;;;4.50;;
2023;SDS011;1016;48.770;9.154;2022-07-29T02:30:53;14.60;;;4.60;;
2023;SDS011;1016;48.770;9.154;2022-07-29T02:33:24;15.98;;;4.97;;
2023;SDS011;1016;48.770;9.154;2022-07-29T02:35:51;14.48;;;4.60;;
2023;SDS011;1016;48.770;9.154;2022-07-29T02:38:17;14.20;;;4.22;;
2023;SDS011;1016;48.770;9.154;2022-07-29T02:41:05;15.77;;;4.67;;
2023;SDS011;1016;48.770;9.154;2022-07-29T02:43:36;14.40;;;4.70;;
2023;SDS011;1016;48.770;9.154;2022-07-29T02:46:02;15.32;;;4.80;;
2023;SDS011;1016;48.770;9.154;2022-07-29T02:48:33;15.60;;;5.10;;
2023;SDS011;1016;48.770;9.154;2022-07-29T02:51:08;15.27;;;4.70;;
2023;SDS011;1016;48.770;9.154;2022-07-29T02:53:42;15.20;;;4.50;;
2023;SDS011;1016;48.770;9.154;2022-07-29T02:56:13;15.15;;;4.80;;
2023;SDS011;1016;48.770;9.154;2022-07-29T02:58:42;14.98;;;4.50;;
2023;SDS011;1016;48.770;9.154;2022-07-29T03:01:13;14.80;;;4.30;;
2023;SDS011;1016;48.770;9.154;2022-07-29T03:03:41;14.55;;;4.22;;
2023;SDS011;1016;48.770;9.154;2022-07-29T03:06:09;14.80;;;4.40;;
2023;SDS011;1016;48.770;9.154;2022-07-29T03:08:36;15.10;;;4.20;;
2023;SDS011;1016;48.770;9.154;2022-07-29T03:11:02;14.80;;;4.20;;
2023;SDS011;1016;48.770;9.154;2022-07-29T03:13:29;14.63;;;4.28;;
2023;SDS011;1016;48.770;9.154;2022-07-29T03:15:55;16.88;;;4.43;;
2023;SDS011;1016;48.770;9.154;2022-07-29T03:18:22;14.25;;;4.30;;
2023;SDS011;1016;48.770;9.154;2022-07-29T03:20:48;14.63;;;4.07;;
2023;SDS011;1016;48.770;9.154;2022-07-29T03:23:21;14.70;;;4.40;;
2023;SDS011;1016;48.770;9.154;2022-07-29T03:25:49;14.05;;;4.10;;
2023;SDS011;1016;48.770;9.154;2022-07-29T03:28:15;14.30;;;4.07;;
2023;SDS011;1016;48.770;9.154;2022-07-29T03:30:40;14.50;;;4.28;;
2023;SDS011;1016;48.770;9.154;2022-07-29T03:33:06;15.70;;;4.60;;
2023;SDS011;1016;48.770;9.154;2022-07-29T03:35:31;15.10;;;4.60;;
2023;SDS011;1016;48.770;9.154;2022-07-29T03:37:57;14.27;;;4.05;;
2023;SDS011;1016;48.770;9.154;2022-07-29T03:40:26;14.40;;;4.30;;
2023;SDS011;1016;48.770;9.154;2022-07-29T03:42:56;15.50;;;4.50;;
2023;SDS011;1016;48.770;9.154;2022-07-29T03:45:24;15.40;;;4.60;;
2023;SDS011;1016;48.770;9.154;2022-07-29T03:47:53;16.00;;;4.45;;
2023;SDS011;1016;48.770;9.154;2022-07-29T03:50:22;15.25;;;4.45;;
2023;SDS011;1016;48.770;9.154;2022-07-29T03:52:48;15.80;;;4.60;;
2023;SDS011;1016;48.770;9.154;2022-07-29T03:55:14;15.27;;;4.72;;
2023;SDS011;1016;48.770;9.154;2022-07-29T03:57:40;15.60;;;4.53;;
2023;SDS011;1016;48.770;9.154;2022-07-29T04:00:07;14.50;;;4.50;;
2023;SDS011;1016;48.770;9.154;2022-07-29T04:02:34;14.70;;;4.60;;
2023;SDS011;1016;48.770;9.154;2022-07-29T04:05:01;15.30;;;4.60;;
2023;SDS011;1016;48.770;9.154;2022-07-29T04:07:27;14.50;;;4.00;;
2023;SDS011;1016;48.770;9.154;2022-07-29T04:09:52;14.80;;;4.40;;
2023;SDS011;1016;48.770;9.154;2022-07-29T04:12:18;15.57;;;4.60;;
2023;SDS011;1016;48.770;9.154;2022-07-29T04:14:45;14.65;;;4.13;;
2023;SDS011;1016;48.770;9.154;2022-07-29T04:17:11;15.40;;;4.10;;
2023;SDS011;1016;48.770;9.154;2022-07-29T04:19:36;14.13;;;3.90;;
2023;SDS011;1016;48.770;9.154;2022-07-29T04:22:02;14.25;;;4.10;;
2023;SDS011;1016;48.770;9.154;2022-07-29T04:24:28;14.15;;;4.07;;
2023;SDS011;1016;48.770;9.154;2022-07-29T04:26:53;15.10;;;4.40;;
2023;SDS011;1016;48.770;9.154;2022-07-29T04:29:19;14.32;;;4.05;;
2023;SDS011;1016;48.770;9.154;2022-07-29T04:31:45;14.47;;;4.30;;
2023;SDS011;1016;48.770;9.154;2022-07-29T04:34:11;14.65;;;4.00;;
2023;SDS011;1016;48.770;9.154;2022-07-29T04:36:37;15.27;;;4.18;;
2023;SDS011;1016;48.770;9.154;2022-07-29T04:39:04;15.32;;;4.20;;
2023;SDS011;1016;48.770;9.154;2022-07-29T04:41:29;13.95;;;3.80;;
2023;SDS011;1016;48.770;9.154;2022-07-29T04:43:56;14.70;;;3.75;;
2023;SDS011;1016;48.770;9.154;2022-07-29T04:46:22;14.70;;;4.00;;
2023;SDS011;1016;48.770;9.154;2022-07-29T04:48:47;14.33;;;3.80;;
2023;SDS011;1016;48.770;9.154;2022-07-29T04:51:14;15.20;;;3.50;;
2023;SDS011;1016;48.770;9.154;2022-07-29T04:53:40;14.20;;;3.40;;
2023;SDS011;1016;48.770;9.154;2022-07-29T04:56:05;15.10;;;3.40;;
2023;SDS011;1016;48.770;9.154;2022-07-29T04:58:31;13.90;;;3.43;;
2023;SDS011;1016;48.770;9.154;2022-07-29T05:01:00;13.80;;;3.40;;
2023;SDS011;1016;48.770;9.154;2022-07-29T05:03:25;13.73;;;3.50;;
2023;SDS011;1016;48.770;9.154;2022-07-29T05:05:51;14.03;;;3.40;;
2023;SDS011;1016;48.770;9.154;2022-07-29T05:08:16;13.80;;;3.50;;
2023;SDS011;1016;48.770;9.154;2022-07-29T05:10:42;14.20;;;3.50;;
2023;SDS011;1016;48.770;9.154;2022-07-29T05:13:10;14.70;;;3.40;;
2023;SDS011;1016;48.770;9.154;2022-07-29T05:15:36;14.13;;;3.45;;
2023;SDS011;1016;48.770;9.154;2022-07-29T05:18:02;14.40;;;3.23;;
2023;SDS011;1016;48.770;9.154;2022-07-29T05:20:28;14.40;;;3.20;;
2023;SDS011;1016;48.770;9.154;2022-07-29T05:22:56;14.40;;;3.40;;
2023;SDS011;1016;48.770;9.154;2022-07-29T05:25:22;14.32;;;3.30;;
2023;SDS011;1016;48.770;9.154;2022-07-29T05:27:48;13.73;;;3.30;;
2023;SDS011;1016;48.770;9.154;2022-07-29T05:30:14;13.80;;;3.20;;
2023;SDS011;1016;48.770;9.154;2022-07-29T05:32:40;14.27;;;2.90;;
2023;SDS011;1016;48.770;9.154;2022-07-29T05:35:05;14.50;;;3.20;;
2023;SDS011;1016;48.770;9.154;2022-07-29T05:37:31;14.50;;;3.10;;
2023;SDS011;1016;48.770;9.154;2022-07-29T05:39:57;14.10;;;3.13;;
2023;SDS011;1016;48.770;9.154;2022-07-29T05:42:24;14.40;;;3.50;;
2023;SDS011;1016;48.770;9.154;2022-07-29T05:44:50;13.63;;;3.08;;
2023;SDS011;1016;48.770;9.154;2022-07-29T05:47:15;14.80;;;3.10;;
2023;SDS011;1016;48.770;9.154;2022-07-29T05:49:41;14.70;;;3.30;;
2023;SDS011;1016;48.770;9.154;2022-07-29T05:52:07;14.20;;;3.08;;
2023;SDS011;1016;48.770;9.154;2022-07-29T05:54:34;14.48;;;3.10;;
2023;SDS011;1016;48.770;9.154;2022-07-29T05:56:59;15.00;;;2.90;;
2023;SDS011;1016;48.770;9.154;2022-07-29T05:59:25;14.30;;;3.10;;
2023;SDS011;1016;48.770;9.154;2022-07-29T06:01:51;14.60;;;3.15;;
2023;SDS011;1016;48.770;9.154;2022-07-29T06:04:16;13.73;;;3.10;;
2023;SDS011;1016;48.770;9.154;2022-07-29T06:06:42;14.50;;;3.13;;
2023;SDS011;1016;48.770;9.154;2022-07-29T06:09:07;13.65;;;3.17;;
2023;SDS011;1016;48.770;9.154;2022-07-29T06:11:33;14.17;;;3.10;;
2023;SDS011;1016;48.770;9.154;2022-07-29T06:13:58;14.50;;;3.20;;
2023;SDS011;1016;48.770;9.154;2022-07-29T06:16:24;13.98;;;3.30;;
2023;SDS011;1016;48.770;9.154;2022-07-29T06:18:49;14.20;;;3.43;;
2023;SDS011;1016;48.770;9.154;2022-07-29T06:21:15;13.80;;;3.30;;
2023;SDS011;1016;48.770;9.154;2022-07-29T06:23:41;15.43;;;3.60;;
2023;SDS011;1016;48.770;9.154;2022-07-29T06:26:07;14.73;;;3.43;;
2023;SDS011;1016;48.770;9.154;2022-07-29T06:28:33;15.10;;;3.50;;
2023;SDS011;1016;48.770;9.154;2022-07-29T06:30:59;14.00;;;3.67;;
2023;SDS011;1016;48.770;9.154;2022-07-29T06:33:25;14.77;;;3.47;;
2023;SDS011;1016;48.770;9.154;2022-07-29T06:35:50;14.70;;;3.40;;
2023;SDS011;1016;48.770;9.154;2022-07-29T06:38:16;15.30;;;3.80;;
2023;SDS011;1016;48.770;9.154;2022-07-29T06:40:42;14.40;;;3.90;;
2023;SDS011;1016;48.770;9.154;2022-07-29T06:43:34;15.80;;;3.80;;
2023;SDS011;1016;48.770;9.154;2022-07-29T06:46:07;15.00;;;3.80;;
2023;SDS011;1016;48.770;9.154;2022-07-29T06:48:34;15.95;;;4.20;;
2023;SDS011;1016;48.770;9.154;2022-07-29T06:51:03;15.23;;;3.95;;
2023;SDS011;1016;48.770;9.154;2022-07-29T06:53:30;14.52;;;3.90;;
2023;SDS011;1016;48.770;9.154;2022-07-29T06:55:57;16.17;;;4.00;;
2023;SDS011;1016;48.770;9.154;2022-07-29T06:58:24;15.45;;;4.30;;
2023;SDS011;1016;48.770;9.154;2022-07-29T07:00:50;14.90;;;3.80;;
2023;SDS011;1016;48.770;9.154;2022-07-29T07:03:16;15.20;;;3.90;;
2023;SDS011;1016;48.770;9.154;2022-07-29T07:05:43;14.77;;;3.80;;
2023;SDS011;1016;48.770;9.154;2022-07-29T07:08:10;15.25;;;3.90;;
2023;SDS011;1016;48.770;9.154;2022-07-29T07:10:37;16.00;;;4.18;;
2023;SDS011;1016;48.770;9.154;2022-07-29T07:13:03;15.73;;;4.10;;
2023;SDS011;1016;48.770;9.154;2022-07-29T07:15:29;15.50;;;4.05;;
2023;SDS011;1016;48.770;9.154;2022-07-29T07:17:55;14.70;;;4.30;;
2023;SDS011;1016;48.770;9.154;2022-07-29T07:20:20;15.00;;;4.00;;
2023;SDS011;1016;48.770;9.154;2022-07-29T07:22:46;16.08;;;4.30;;
2023;SDS011;1016;48.770;9.154;2022-07-29T07:25:13;15.07;;;4.10;;
2023;SDS011;1016;48.770;9.154;2022-07-29T07:27:39;15.23;;;4.25;;
2023;SDS011;1016;48.770;9.154;2022-07-29T07:30:05;15.20;;;4.20;;
2023;SDS011;1016;48.770;9.154;2022-07-29T07:32:35;15.27;;;4.22;;
2023;SDS011;1016;48.770;9.154;2022-07-29T07:35:01;14.52;;;4.18;;
2023;SDS011;1016;48.770;9.154;2022-07-29T07:37:27;16.27;;;4.28;;
2023;SDS011;1016;48.770;9.154;2022-07-29T07:39:52;17.17;;;4.40;;
2023;SDS011;1016;48.770;9.154;2022-07-29T07:42:18;14.83;;;4.00;;
2023;SDS011;1016;48.770;9.154;2022-07-29T07:44:44;15.57;;;4.38;;
2023;SDS011;1016;48.770;9.154;2022-07-29T07:47:10;15.50;;;4.00;;
2023;SDS011;1016;48.770;9.154;2022-07-29T07:49:37;16.77;;;4.50;;
2023;SDS011;1016;48.770;9.154;2022-07-29T07:52:02;14.90;;;4.30;;
2023;SDS011;1016;48.770;9.154;2022-07-29T07:54:29;17.77;;;4.30;;
2023;SDS011;1016;48.770;9.154;2022-07-29T07:56:54;16.67;;;4.20;;
2023;SDS011;1016;48.770;9.154;2022-07-29T07:59:20;15.30;;;4.30;;
2023;SDS011;1016;48.770;9.154;2022-07-29T08:01:45;16.02;;;4.30;;
2023;SDS011;1016;48.770;9.154;2022-07-29T08:04:11;15.95;;;4.72;;
2023;SDS011;1016;48.770;9.154;2022-07-29T08:06:37;15.87;;;4.60;;
2023;SDS011;1016;48.770;9.154;2022-07-29T08:09:03;15.45;;;4.30;;
2023;SDS011;1016;48.770;9.154;2022-07-29T08:11:29;16.23;;;4.30;;
2023;SDS011;1016;48.770;9.154;2022-07-29T08:13:55;14.90;;;4.13;;
2023;SDS011;1016;48.770;9.154;2022-07-29T08:16:20;16.98;;;4.40;;
2023;SDS011;1016;48.770;9.154;2022-07-29T08:18:46;17.60;;;4.43;;
2023;SDS011;1016;48.770;9.154;2022-07-29T08:21:12;16.30;;;4.30;;
2023;SDS011;1016;48.770;9.154;2022-07-29T08:23:39;16.42;;;4.30;;
2023;SDS011;1016;48.770;9.154;2022-07-29T08:26:10;16.77;;;4.65;;
2023;SDS011;1016;48.770;9.154;2022-07-29T08:28:36;18.77;;;5.30;;
2023;SDS011;1016;48.770;9.154;2022-07-29T08:31:03;16.67;;;4.63;;
2023;SDS011;1016;48.770;9.154;2022-07-29T08:33:29;15.73;;;4.60;;
2023;SDS011;1016;48.770;9.154;2022-07-29T08:35:54;18.00;;;4.80;;
2023;SDS011;1016;48.770;9.154;2022-07-29T08:38:20;18.50;;;4.80;;
2023;SDS011;1016;48.770;9.154;2022-07-29T08:40:46;15.70;;;4.47;;
2023;SDS011;1016;48.770;9.154;2022-07-29T08:43:11;17.50;;;4.60;;
2023;SDS011;1016;48.770;9.154;2022-07-29T08:45:42;17.67;;;4.40;;
2023;SDS011;1016;48.770;9.154;2022-07-29T08:48:12;15.80;;;4.37;;
2023;SDS011;1016;48.770;9.154;2022-07-29T08:50:39;15.52;;;4.43;;
2023;SDS011;1016;48.770;9.154;2022-07-29T08:53:07;15.70;;;4.20;;
2023;SDS011;1016;48.770;9.154;2022-07-29T08:55:36;16.20;;;4.85;;
2023;SDS011;1016;48.770;9.154;2022-07-29T08:58:07;15.82;;;4.40;;
2023;SDS011;1016;48.770;9.154;2022-07-29T09:00:33;16.80;;;4.60;;
2023;SDS011;1016;48.770;9.154;2022-07-29T09:03:01;16.40;;;4.32;;
2023;SDS011;1016;48.770;9.154;2022-07-29T09:05:29;16.15;;;4.82;;
2023;SDS011;1016;48.770;9.154;2022-07-29T09:07:56;17.75;;;5.25;;
2023;SDS011;1016;48.770;9.154;2022-07-29T09:10:22;17.35;;;4.80;;
2023;SDS011;1016;48.770;9.154;2022-07-29T09:12:48;15.98;;;4.40;;
2023;SDS011;1016;48.770;9.154;2022-07-29T09:15:14;16.02;;;4.78;;
2023;SDS011;1016;48.770;9.154;2022-07-29T09:17:43;17.42;;;4.47;;
2023;SDS011;1016;48.770;9.154;2022-07-29T09:20:10;16.42;;;4.70;;
2023;SDS011;1016;48.770;9.154;2022-07-29T09:22:41;17.60;;;4.93;;
2023;SDS011;1016;48.770;9.154;2022-07-29T09:25:06;17.50;;;5.00;;
2023;SDS011;1016;48.770;9.154;2022-07-29T09:27:32;18.60;;;4.80;;
2023;SDS011;1016;48.770;9.154;2022-07-29T09:29:59;16.95;;;4.60;;
2023;SDS011;1016;48.770;9.154;2022-07-29T09:32:26;16.10;;;4.97;;
2023;SDS011;1016;48.770;9.154;2022-07-29T09:37:48;18.52;;;4.68;;
2023;SDS011;1016;48.770;9.154;2022-07-29T09:40:18;16.80;;;4.60;;
2023;SDS011;1016;48.770;9.154;2022-07-29T09:42:46;17.17;;;5.10;;
2023;SDS011;1016;48.770;9.154;2022-07-29T09:45:12;16.35;;;4.88;;
2023;SDS011;1016;48.770;9.154;2022-07-29T09:47:50;20.20;;;5.50;;
2023;SDS011;1016;48.770;9.154;2022-07-29T09:50:16;20.80;;;5.20;;
2023;SDS011;1016;48.770;9.154;2022-07-29T09:52:53;17.27;;;5.00;;
2023;SDS011;1016;48.770;9.154;2022-07-29T09:55:18;16.95;;;5.30;;
2023;SDS011;1016;48.770;9.154;2022-07-29T09:57:44;17.30;;;4.80;;
2023;SDS011;1016;48.770;9.154;2022-07-29T10:00:12;16.40;;;4.78;;
2023;SDS011;1016;48.770;9.154;2022-07-29T10:02:40;16.67;;;4.80;;
2023;SDS011;1016;48.770;9.154;2022-07-29T10:05:25;18.45;;;4.90;;
2023;SDS011;1016;48.770;9.154;2022-07-29T10:07:54;16.38;;;5.20;;
2023;SDS011;1016;48.770;9.154;2022-07-29T10:10:28;16.52;;;5.35;;
2023;SDS011;1016;48.770;9.154;2022-07-29T10:15:25;16.77;;;5.00;;
2023;SDS011;1016;48.770;9.154;2022-07-29T10:17:52;16.60;;;4.93;;
2023;SDS011;1016;48.770;9.154;2022-07-29T10:20:19;16.88;;;5.20;;
2023;SDS011;1016;48.770;9.154;2022-07-29T10:22:46;18.00;;;5.05;;
2023;SDS011;1016;48.770;9.154;2022-07-29T10:25:14;16.95;;;5.03;;
2023;SDS011;1016;48.770;9.154;2022-07-29T10:27:40;18.80;;;7.13;;
2023;SDS011;1016;48.770;9.154;2022-07-29T10:30:06;19.20;;;6.35;;
2023;SDS011;1016;48.770;9.154;2022-07-29T10:35:31;17.00;;;5.43;;
2023;SDS011;1016;48.770;9.154;2022-07-29T10:41:12;19.50;;;5.40;;
2023;SDS011;1016;48.770;9.154;2022-07-29T10:43:55;17.50;;;5.53;;
2023;SDS011;1016;48.770;9.154;2022-07-29T10:46:42;18.05;;;5.47;;
2023;SDS011;1016;48.770;9.154;2022-07-29T10:49:12;16.17;;;5.60;;
2023;SDS011;1016;48.770;9.154;2022-07-29T10:59:41;18.17;;;7.30;;
2023;SDS011;1016;48.770;9.154;2022-07-29T11:05:05;20.13;;;7.55;;
2023;SDS011;1016;48.770;9.154;2022-07-29T11:07:33;18.70;;;7.80;;
2023;SDS011;1016;48.770;9.154;2022-07-29T11:15:12;26.52;;;10.88;;
2023;SDS011;1016;48.770;9.154;2022-07-29T11:23:25;20.05;;;9.32;;
2023;SDS011;1016;48.770;9.154;2022-07-29T11:39:38;21.00;;;9.77;;
2023;SDS011;1016;48.770;9.154;2022-07-29T11:45:01;20.50;;;10.40;;
2023;SDS011;1016;48.770;9.154;2022-07-29T11:47:31;19.93;;;9.33;;
2023;SDS011;1016;48.770;9.154;2022-07-29T11:49:59;21.80;;;9.80;;
2023;SDS011;1016;48.770;9.154;2022-07-29T11:52:59;19.70;;;9.70;;
2023;SDS011;1016;48.770;9.154;2022-07-29T11:55:19;19.87;;;9.30;;
2023;SDS011;1016;48.770;9.154;2022-07-29T11:57:51;18.98;;;9.18;;
2023;SDS011;1016;48.770;9.154;2022-07-29T12:00:31;18.40;;;8.52;;
2023;SDS011;1016;48.770;9.154;2022-07-29T12:03:00;19.13;;;8.70;;
2023;SDS011;1016;48.770;9.154;2022-07-29T12:05:31;17.97;;;8.27;;
2023;SDS011;1016;48.770;9.154;2022-07-29T12:08:03;17.27;;;7.90;;
2023;SDS011;1016;48.770;9.154;2022-07-29T12:10:35;17.60;;;7.80;;
2023;SDS011;1016;48.770;9.154;2022-07-29T12:13:01;17.17;;;7.40;;
2023;SDS011;1016;48.770;9.154;2022-07-29T12:15:27;17.40;;;7.50;;
2023;SDS011;1016;48.770;9.154;2022-07-29T12:17:53;17.30;;;6.67;;
2023;SDS011;1016;48.770;9.154;2022-07-29T12:20:22;17.30;;;6.50;;
2023;SDS011;1016;48.770;9.154;2022-07-29T12:22:50;16.60;;;6.20;;
2023;SDS011;1016;48.770;9.154;2022-07-29T12:25:18;16.20;;;5.90;;
2023;SDS011;1016;48.770;9.154;2022-07-29T12:27:44;17.50;;;5.50;;
2023;SDS011;1016;48.770;9.154;2022-07-29T12:30:11;16.00;;;5.50;;
2023;SDS011;1016;48.770;9.154;2022-07-29T12:32:41;15.20;;;5.65;;
2023;SDS011;1016;48.770;9.154;2022-07-29T12:35:09;16.30;;;6.00;;
2023;SDS011;1016;48.770;9.154;2022-07-29T12:37:46;16.25;;;6.32;;
2023;SDS011;1016;48.770;9.154;2022-07-29T12:40:14;16.63;;;6.05;;
2023;SDS011;1016;48.770;9.154;2022-07-29T12:42:53;15.68;;;6.15;;
2023;SDS011;1016;48.770;9.154;2022-07-29T12:45:34;15.70;;;6.30;;
2023;SDS011;1016;48.770;9.154;2022-07-29T12:48:01;18.90;;;6.90;;
2023;SDS011;1016;48.770;9.154;2022-07-29T12:50:27;16.95;;;6.35;;
2023;SDS011;1016;48.770;9.154;2022-07-29T12:52:53;16.80;;;6.20;;
2023;SDS011;1016;48.770;9.154;2022-07-29T12:55:38;16.43;;;6.10;;
2023;SDS011;1016;48.770;9.154;2022-07-29T12:58:08;17.50;;;6.13;;
2023;SDS011;1016;48.770;9.154;2022-07-29T13:00:33;16.53;;;6.13;;
2023;SDS011;1016;48.770;9.154;2022-07-29T13:02:59;17.02;;;6.45;;
2023;SDS011;1016;48.770;9.154;2022-07-29T13:08:24;16.70;;;6.50;;
2023;SDS011;1016;48.770;9.154;2022-07-29T13:10:50;16.92;;;6.00;;
2023;SDS011;1016;48.770;9.154;2022-07-29T13:13:15;18.20;;;6.47;;
2023;SDS011;1016;48.770;9.154;2022-07-29T13:15:42;16.67;;;6.37;;
2023;SDS011;1016;48.770;9.154;2022-07-29T13:21:09;17.65;;;7.00;;
2023;SDS011;1016;48.770;9.154;2022-07-29T13:23:36;19.65;;;7.72;;
2023;SDS011;1016;48.770;9.154;2022-07-29T13:26:06;16.73;;;6.97;;
2023;SDS011;1016;48.770;9.154;2022-07-29T13:28:32;17.40;;;6.60;;
2023;SDS011;1016;48.770;9.154;2022-07-29T13:30:59;17.80;;;6.60;;
2023;SDS011;1016;48.770;9.154;2022-07-29T13:33:24;17.27;;;6.50;;
2023;SDS011;1016;48.770;9.154;2022-07-29T13:35:50;16.17;;;5.93;;
2023;SDS011;1016;48.770;9.154;2022-07-29T13:38:15;16.83;;;6.17;;
2023;SDS011;1016;48.770;9.154;2022-07-29T13:40:41;16.80;;;8.40;;
2023;SDS011;1016;48.770;9.154;2022-07-29T13:43:10;16.52;;;6.03;;
2023;SDS011;1016;48.770;9.154;2022-07-29T13:45:36;17.23;;;6.70;;
2023;SDS011;1016;48.770;9.154;2022-07-29T13:48:02;17.02;;;7.13;;
2023;SDS011;1016;48.770;9.154;2022-07-29T13:50:28;17.93;;;6.93;;
2023;SDS011;1016;48.770;9.154;2022-07-29T13:52:54;16.60;;;6.68;;
2023;SDS011;1016;48.770;9.154;2022-07-29T13:55:20;16.70;;;6.40;;
2023;SDS011;1016;48.770;9.154;2022-07-29T13:57:45;17.15;;;8.18;;
2023;SDS011;1016;48.770;9.154;2022-07-29T14:00:11;16.70;;;6.47;;
2023;SDS011;1016;48.770;9.154;2022-07-29T14:02:37;19.27;;;6.78;;
2023;SDS011;1016;48.770;9.154;2022-07-29T14:05:04;17.67;;;6.80;;
2023;SDS011;1016;48.770;9.154;2022-07-29T14:07:33;18.33;;;7.10;;
2023;SDS011;1016;48.770;9.154;2022-07-29T14:09:59;17.88;;;6.55;;
2023;SDS011;1016;48.770;9.154;2022-07-29T14:12:24;15.63;;;6.70;;
2023;SDS011;1016;48.770;9.154;2022-07-29T14:14:50;17.43;;;7.10;;
2023;SDS011;1016;48.770;9.154;2022-07-29T14:17:15;16.90;;;6.90;;
2023;SDS011;1016;48.770;9.154;2022-07-29T14:19:41;16.73;;;7.30;;
2023;SDS011;1016;48.770;9.154;2022-07-29T14:22:07;17.40;;;7.30;;
2023;SDS011;1016;48.770;9.154;2022-07-29T14:24:33;17.40;;;7.40;;
2023;SDS011;1016;48.770;9.154;2022-07-29T14:26:59;17.50;;;7.30;;
2023;SDS011;1016;48.770;9.154;2022-07-29T14:29:25;17.23;;;7.00;;
2023;SDS011;1016;48.770;9.154;2022-07-29T14:31:51;17.73;;;6.80;;
2023;SDS011;1016;48.770;9.154;2022-07-29T14:34:17;17.93;;;7.10;;
2023;SDS011;1016;48.770;9.154;2022-07-29T14:36:42;17.00;;;6.80;;
2023;SDS011;1016;48.770;9.154;2022-07-29T14:39:08;16.60;;;6.70;;
2023;SDS011;1016;48.770;9.154;2022-07-29T14:41:33;19.70;;;7.20;;
2023;SDS011;1016;48.770;9.154;2022-07-29T14:43:59;18.00;;;6.50;;
2023;SDS011;1016;48.770;9.154;2022-07-29T14:46:25;17.60;;;6.50;;
2023;SDS011;1016;48.770;9.154;2022-07-29T14:48:51;16.60;;;6.32;;
2023;SDS011;1016;48.770;9.154;2022-07-29T14:51:17;17.52;;;6.20;;
2023;SDS011;1016;48.770;9.154;2022-07-29T14:53:43;18.40;;;6.60;;
2023;SDS011;1016;48.770;9.154;2022-07-29T14:56:08;17.37;;;6.33;;
2023;SDS011;1016;48.770;9.154;2022-07-29T14:58:34;16.98;;;6.57;;
2023;SDS011;1016;48.770;9.154;2022-07-29T15:01:00;17.37;;;6.80;;
2023;SDS011;1016;48.770;9.154;2022-07-29T15:03:26;16.88;;;6.70;;
2023;SDS011;1016;48.770;9.154;2022-07-29T15:05:52;17.73;;;7.10;;
2023;SDS011;1016;48.770;9.154;2022-07-29T15:08:18;17.50;;;7.22;;
2023;SDS011;1016;48.770;9.154;2022-07-29T15:10:44;17.67;;;7.00;;
2023;SDS011;1016;48.770;9.154;2022-07-29T15:13:09;17.95;;;7.15;;
2023;SDS011;1016;48.770;9.154;2022-07-29T15:15:35;18.80;;;7.82;;
2023;SDS011;1016;48.770;9.154;2022-07-29T15:18:00;18.77;;;7.70;;
2023;SDS011;1016;48.770;9.154;2022-07-29T15:20:26;17.77;;;8.00;;
2023;SDS011;1016;48.770;9.154;2022-07-29T15:22:52;18.17;;;7.78;;
2023;SDS011;1016;48.770;9.154;2022-07-29T15:25:18;17.15;;;7.30;;
2023;SDS011;1016;48.770;9.154;2022-07-29T15:27:43;17.35;;;7.10;;
2023;SDS011;1016;48.770;9.154;2022-07-29T15:30:09;18.10;;;7.35;;
2023;SDS011;1016;48.770;9.154;2022-07-29T15:32:35;17.00;;;6.40;;
2023;SDS011;1016;48.770;9.154;2022-07-29T15:35:01;16.80;;;6.88;;
2023;SDS011;1016;48.770;9.154;2022-07-29T15:37:27;16.73;;;6.82;;
2023;SDS011;1016;48.770;9.154;2022-07-29T15:39:53;19.60;;;7.30;;
2023;SDS011;1016;48.770;9.154;2022-07-29T15:42:19;16.83;;;7.50;;
2023;SDS011;1016;48.770;9.154;2022-07-29T15:44:44;17.77;;;7.27;;
2023;SDS011;1016;48.770;9.154;2022-07-29T15:47:10;17.47;;;7.57;;
2023;SDS011;1016;48.770;9.154;2022-07-29T15:49:37;17.53;;;7.30;;
2023;SDS011;1016;48.770;9.154;2022-07-29T15:52:05;17.17;;;7.22;;
2023;SDS011;1016;48.770;9.154;2022-07-29T15:54:33;18.38;;;8.35;;
2023;SDS011;1016;48.770;9.154;2022-07-29T15:57:00;17.60;;;7.45;;
2023;SDS011;1016;48.770;9.154;2022-07-29T15:59:26;17.67;;;7.43;;
2023;SDS011;1016;48.770;9.154;2022-07-29T16:01:52;17.20;;;7.90;;